MUVR/VRA METAR and TAF weather

Enter ICAO airport designator
Station Type Date Time Source
MUVR METAR 2019/10/21 02:50 UTC NOAA

MUVR 210250Z 14004KT 8000 FEW030 25/24 Q1016


Station Type Date Time Source
MUVR Decoded METAR 2019/10/21 02:50 UTC NOAA

Varadero, Matanzas, Cuba (MUVR) 23-08N 081-17W 3M
Oct 20, 2019 - 10:50 PM EDT / 2019.10.21 0250 UTC
Wind: from the SE (140 degrees) at 5 MPH (4 KT):0
Visibility: 4 mile(s):0
Sky conditions: mostly clear
Temperature: 77 F (25 C)
Dew Point: 75 F (24 C)
Relative Humidity: 94%
Pressure (altimeter): 30.00 in. Hg (1016 hPa)
ob: MUVR 210250Z 14004KT 8000 FEW030 25/24 Q1016
cycle: 3

Station Type Date Time Source
MUVR TAF 2019/10/20 18:03 UTC NOAA

TAF MUVR 201700Z 2018/2118 19007KT 9000 SCT020
BECMG 2019/2021 VRB03KT
TEMPO 2022/2102 VRB10KT 4000 TSRA SCT018CB BKN020

Example: see airport list